Главная страница
METAR-TAF:

METAR-TAF

Аэропорты :

Хантсвилл, Алабама, США

широта: 34-51-41N, долгота: 086-33-26W, высота над уровнем моря: 230 м

Текущие метеонаблюдения

Эта сводка был подготовлена 26 минут назад, в 01:15 UTC
Ветер 4 Узел от южный
Температура 18°C
Влажность 39%
Давление 1019 hPa
Видимость: 16.1 км
Сплошная облачность на высоте 8000 фута

METAR: KMDQ 250115Z AUTO 17004KT 10SM OVC080 18/04 A3010 RMK A02 T01800045

Время: 20:41 (01:41 UTC)


TAF: отсутствует

Метеонаблюдения и прогнозы для более 4000 аэропортов (сводки METAR и TAF).

Имеющиеся станции представлены на карте желтыми и красными точками.

Чтобы увидеть название станции, наведите на нее мышь.

Затем щелкните, чтобы увидеть метеонаблюдения и метеопрогнозы.

Управление картой: чтобы увеличить масштаб, щелкните зеленые кнопки с черным крестиком; чтобы уменьшить масштаб, щелкните зеленую кнопку с тире; для просмотра соседних карт щелкайте зеленые стрелки.


METAR-TAF: